Time;durP1;ratioP1;P1;durP2;ratioP2;P2;SDS_P1;SDS_P2;PMS_P1;PMS_P2;Temp;Humidity;BMP_temperature;BMP_pressure;BME280_temperature;BME280_humidity;BME280_pressure;Samples;Min_cycle;Max_cycle;Signal;HPM_P1;HPM_P2
2022/11/28 00:02:17;;;;;;;19.88;14.93;;;6.00;99.90;;;;;;5036530;28;20072;-76
2022/11/28 00:04:43;;;;;;;22.85;15.73;;;6.10;99.90;;;;;;5019047;28;20037;-76
2022/11/28 00:07:10;;;;;;;23.88;16.13;;;6.10;99.90;;;;;;5035849;28;20045;-77
2022/11/28 00:09:36;;;;;;;22.88;14.85;;;6.10;99.90;;;;;;5036578;28;20049;-75
2022/11/28 00:12:01;;;;;;;18.80;13.90;;;6.10;99.90;;;;;;5036527;28;20049;-75
2022/11/28 00:14:27;;;;;;;19.65;13.63;;;6.00;99.90;;;;;;5036235;28;20048;-75
2022/11/28 00:16:52;;;;;;;22.13;14.65;;;6.10;99.90;;;;;;5036253;28;20416;-75
2022/11/28 00:19:18;;;;;;;18.52;14.45;;;6.10;99.90;;;;;;5035466;28;20076;-75
2022/11/28 00:21:44;;;;;;;19.00;14.32;;;6.00;99.90;;;;;;5001226;28;20050;-75
2022/11/28 00:24:09;;;;;;;17.48;13.25;;;6.10;99.90;;;;;;5016432;28;20447;-76
2022/11/28 00:26:38;;;;;;;20.88;15.55;;;6.10;99.90;;;;;;5016164;28;20454;-75
2022/11/28 00:29:05;;;;;;;18.98;13.27;;;6.10;99.90;;;;;;5016286;28;20064;-75
2022/11/28 00:31:34;;;;;;;20.27;14.23;;;6.10;99.90;;;;;;5016413;28;20399;-76
2022/11/28 00:34:03;;;;;;;22.85;15.05;;;6.10;99.90;;;;;;5035137;28;20049;-73
2022/11/28 00:36:29;;;;;;;23.90;14.85;;;6.10;99.90;;;;;;5036173;28;20049;-73
2022/11/28 00:38:55;;;;;;;21.25;15.27;;;6.30;99.90;;;;;;5035737;28;20045;-73
2022/11/28 00:41:27;;;;;;;23.77;15.70;;;6.10;99.90;;;;;;5018548;28;20045;-72
2022/11/28 00:43:53;;;;;;;18.55;13.50;;;6.10;99.90;;;;;;5035766;28;20120;-72
2022/11/28 00:46:19;;;;;;;23.92;16.23;;;6.10;99.90;;;;;;5035734;28;20045;-73
2022/11/28 00:48:45;;;;;;;25.67;15.43;;;6.10;99.90;;;;;;5035083;28;20048;-73
2022/11/28 00:51:12;;;;;;;18.65;13.93;;;6.10;99.90;;;;;;5035639;28;20041;-73
2022/11/28 00:53:40;;;;;;;21.38;14.38;;;6.10;99.90;;;;;;5035134;28;20045;-73
2022/11/28 00:56:07;;;;;;;17.20;13.18;;;6.10;99.90;;;;;;5036021;28;20180;-75
2022/11/28 00:58:34;;;;;;;22.40;15.30;;;6.10;99.90;;;;;;5035557;28;20041;-76
2022/11/28 01:01:26;;;;;;;23.02;15.75;;;6.10;99.90;;;;;;5035622;28;20041;-75
2022/11/28 01:03:54;;;;;;;24.00;16.50;;;6.10;99.90;;;;;;5016660;28;20458;-76
2022/11/28 01:06:26;;;;;;;18.50;13.02;;;6.30;99.90;;;;;;5035753;28;20075;-76
2022/11/28 01:08:53;;;;;;;22.15;15.73;;;6.20;99.90;;;;;;5035080;28;20045;-76
2022/11/28 01:11:19;;;;;;;18.13;13.50;;;6.20;99.90;;;;;;5035464;28;20081;-75
2022/11/28 01:13:45;;;;;;;18.17;12.88;;;6.20;99.90;;;;;;5017802;28;20084;-75
2022/11/28 01:16:11;;;;;;;17.20;14.20;;;6.20;99.90;;;;;;5035310;28;20037;-76
2022/11/28 01:18:37;;;;;;;20.40;14.90;;;6.20;99.90;;;;;;5017127;28;20045;-76
2022/11/28 01:21:03;;;;;;;21.55;15.73;;;6.20;99.90;;;;;;5015108;28;20104;-75
2022/11/28 01:23:29;;;;;;;20.05;14.63;;;6.20;99.90;;;;;;4998001;28;20103;-76
2022/11/28 01:25:55;;;;;;;20.40;14.82;;;6.20;99.90;;;;;;5015162;28;20125;-77
2022/11/28 01:28:20;;;;;;;15.05;13.10;;;6.20;99.90;;;;;;5017555;28;20052;-75
2022/11/28 01:30:46;;;;;;;19.92;14.35;;;6.30;99.90;;;;;;5035142;28;20049;-75
2022/11/28 01:33:12;;;;;;;17.95;14.77;;;6.30;99.90;;;;;;5017790;28;20041;-75
2022/11/28 01:35:37;;;;;;;16.42;12.57;;;6.40;99.90;;;;;;5001716;28;20138;-76
2022/11/28 01:38:03;;;;;;;19.85;14.65;;;6.30;99.90;;;;;;5000806;28;20103;-75
2022/11/28 01:40:29;;;;;;;22.02;14.05;;;6.30;99.90;;;;;;4989150;28;20404;-75
2022/11/28 01:42:57;;;;;;;17.67;13.68;;;6.30;99.90;;;;;;5015934;28;20045;-76
2022/11/28 01:45:32;;;;;;;24.45;16.65;;;6.30;99.90;;;;;;5015444;28;20113;-76
2022/11/28 01:48:01;;;;;;;21.17;16.58;;;6.40;99.90;;;;;;5015066;28;20060;-75
2022/11/28 01:50:30;;;;;;;23.65;16.33;;;6.40;99.90;;;;;;5015375;28;20090;-75
2022/11/28 01:52:58;;;;;;;21.35;16.67;;;6.40;99.90;;;;;;5014822;28;20046;-75
2022/11/28 01:55:30;;;;;;;24.08;17.17;;;6.40;99.90;;;;;;5014940;28;20101;-75
2022/11/28 01:57:55;;;;;;;21.92;15.73;;;6.40;99.90;;;;;;5015133;28;20053;-75
2022/11/28 02:00:22;;;;;;;23.15;15.00;;;6.40;99.90;;;;;;5015403;28;20046;-72
2022/11/28 02:03:02;;;;;;;28.92;18.23;;;6.40;99.90;;;;;;5014797;28;20108;-73
2022/11/28 02:05:27;;;;;;;21.95;16.77;;;6.40;99.90;;;;;;5016403;28;20517;-73
2022/11/28 02:07:53;;;;;;;28.80;18.60;;;6.70;99.90;;;;;;5019241;28;20125;-73
2022/11/28 02:10:55;;;;;;;25.20;18.58;;;6.40;99.90;;;;;;5018603;28;20473;-74
2022/11/28 02:13:39;;;;;;;32.03;21.55;;;6.40;99.90;;;;;;4973000;28;20054;-73
2022/11/28 02:16:15;;;;;;;32.13;21.75;;;6.40;99.90;;;;;;5021698;28;20128;-73
2022/11/28 02:19:05;;;;;;;37.25;21.42;;;6.30;99.90;;;;;;5028157;28;20038;-73
2022/11/28 02:21:59;;;;;;;33.20;23.08;;;6.30;99.90;;;;;;5014459;28;20101;-74
2022/11/28 02:24:40;;;;;;;36.22;24.67;;;6.30;99.90;;;;;;5018728;28;20359;-73
2022/11/28 02:27:24;;;;;;;32.95;22.98;;;6.30;99.90;;;;;;5038402;28;20060;-73
2022/11/28 02:30:14;;;;;;;38.70;26.70;;;6.30;99.90;;;;;;5038277;28;20045;-72
2022/11/28 02:32:49;;;;;;;37.60;24.83;;;6.30;99.90;;;;;;5038236;28;20051;-73
2022/11/28 02:35:39;;;;;;;33.45;24.35;;;6.40;99.90;;;;;;5028809;28;20053;-72
2022/11/28 02:38:33;;;;;;;35.35;23.90;;;6.40;99.90;;;;;;5017928;28;20116;-75
2022/11/28 02:41:24;;;;;;;33.97;23.63;;;6.30;99.90;;;;;;5018524;28;20121;-75
2022/11/28 02:44:02;;;;;;;37.88;23.95;;;6.40;99.90;;;;;;5000896;28;20053;-75
2022/11/28 02:47:00;;;;;;;31.63;22.92;;;6.40;99.90;;;;;;5001199;28;20481;-75
2022/11/28 02:49:33;;;;;;;33.53;23.88;;;6.40;99.90;;;;;;4999829;28;20374;-75
2022/11/28 02:52:11;;;;;;;33.90;22.10;;;6.40;99.90;;;;;;5017845;28;20045;-74
2022/11/28 02:54:38;;;;;;;26.48;20.10;;;6.40;99.90;;;;;;5018306;28;20046;-75
2022/11/28 02:57:04;;;;;;;34.30;22.60;;;6.40;99.90;;;;;;5016976;28;20128;-76
2022/11/28 02:59:49;;;;;;;30.45;21.58;;;6.40;99.90;;;;;;5021802;28;20402;-76
2022/11/28 03:02:18;;;;;;;33.33;22.15;;;6.40;99.90;;;;;;5017670;28;20046;-75
2022/11/28 03:05:07;;;;;;;36.35;22.17;;;6.40;99.90;;;;;;5037894;28;20401;-76
2022/11/28 03:08:01;;;;;;;30.63;22.40;;;6.40;99.90;;;;;;5038147;28;20045;-75
2022/11/28 03:10:38;;;;;;;37.25;24.02;;;6.40;99.90;;;;;;5038312;28;20049;-75
2022/11/28 03:13:38;;;;;;;38.05;24.10;;;6.40;99.90;;;;;;5037523;28;20049;-76
2022/11/28 03:16:04;;;;;;;36.83;24.77;;;6.40;99.90;;;;;;5036096;28;20053;-76
2022/11/28 03:18:48;;;;;;;41.65;25.42;;;6.50;99.90;;;;;;5000614;28;20052;-74
2022/11/28 03:21:31;;;;;;;36.67;26.25;;;6.40;99.90;;;;;;5002747;28;20056;-75
2022/11/28 03:24:01;;;;;;;32.67;24.20;;;6.40;99.90;;;;;;5037252;28;20041;-75
2022/11/28 03:26:40;;;;;;;36.88;24.45;;;6.40;99.90;;;;;;5037153;28;20088;-76
2022/11/28 03:29:20;;;;;;;39.58;25.92;;;6.40;99.90;;;;;;5037255;28;20068;-75
2022/11/28 03:31:57;;;;;;;41.58;28.50;;;6.40;99.90;;;;;;5019750;28;20081;-75
2022/11/28 03:34:29;;;;;;;38.55;25.05;;;6.40;99.90;;;;;;5003455;28;20045;-75
2022/11/28 03:37:07;;;;;;;42.42;28.40;;;6.40;99.90;;;;;;5020794;28;20072;-75
2022/11/28 03:39:37;;;;;;;41.42;29.02;;;6.50;99.90;;;;;;5017103;28;20038;-76
2022/11/28 03:42:21;;;;;;;45.38;28.92;;;6.40;99.90;;;;;;5036906;28;20418;-75
2022/11/28 03:44:55;;;;;;;49.95;30.65;;;6.50;99.90;;;;;;5036789;28;20053;-75
2022/11/28 03:47:25;;;;;;;50.65;30.83;;;6.50;99.90;;;;;;5036881;28;20088;-76
2022/11/28 03:49:55;;;;;;;51.50;31.70;;;6.60;99.90;;;;;;5005572;28;20477;-75
2022/11/28 03:52:28;;;;;;;44.10;30.33;;;6.50;99.90;;;;;;5016969;28;20335;-75
2022/11/28 03:55:10;;;;;;;52.67;32.58;;;6.50;99.90;;;;;;5016931;28;20096;-75
2022/11/28 03:57:49;;;;;;;43.50;30.45;;;6.50;99.90;;;;;;5016346;28;20514;-75
2022/11/28 04:00:15;;;;;;;48.55;32.03;;;6.60;99.90;;;;;;4999369;28;20073;-75
2022/11/28 04:03:12;;;;;;;51.03;33.60;;;6.60;99.90;;;;;;5016726;28;20076;-75
2022/11/28 04:05:47;;;;;;;49.47;31.67;;;6.60;99.90;;;;;;5016476;28;20041;-76
2022/11/28 04:08:25;;;;;;;38.55;28.65;;;6.60;99.90;;;;;;4999538;28;20046;-75
2022/11/28 04:11:06;;;;;;;43.00;32.22;;;6.60;99.90;;;;;;5035119;28;20092;-75
2022/11/28 04:13:48;;;;;;;51.00;33.85;;;6.60;99.90;;;;;;5002609;28;20037;-75
2022/11/28 04:16:43;;;;;;;48.92;33.60;;;6.60;99.90;;;;;;5036202;28;20139;-75
2022/11/28 04:19:18;;;;;;;48.78;33.22;;;6.60;99.90;;;;;;5026931;28;20064;-75
2022/11/28 04:22:06;;;;;;;48.42;35.40;;;6.70;99.90;;;;;;5035993;28;20046;-75
2022/11/28 04:24:53;;;;;;;52.22;36.05;;;6.70;99.90;;;;;;5035394;28;20316;-75
2022/11/28 04:27:26;;;;;;;59.33;38.08;;;6.70;99.90;;;;;;5035403;28;20044;-73
2022/11/28 04:30:00;;;;;;;61.65;38.25;;;6.70;99.90;;;;;;5035728;28;20046;-74
2022/11/28 04:32:28;;;;;;;57.50;36.85;;;6.70;99.90;;;;;;5035811;28;20041;-73
2022/11/28 04:35:00;;;;;;;66.88;41.72;;;6.70;99.90;;;;;;5018179;28;20053;-72
2022/11/28 04:37:27;;;;;;;68.25;39.47;;;6.90;99.90;;;;;;5035800;28;20033;-73
2022/11/28 04:39:57;;;;;;;62.95;41.80;;;6.80;99.90;;;;;;5002172;28;20041;-73
2022/11/28 04:42:31;;;;;;;56.28;40.17;;;6.80;99.90;;;;;;5036107;28;20041;-73
2022/11/28 04:45:00;;;;;;;;;;;6.80;99.90;;;;;;5036401;28;20111;-75
2022/11/28 04:47:25;;;;;;;71.47;45.95;;;6.90;99.90;;;;;;5035991;28;19975;-76
2022/11/28 04:49:52;;;;;;;63.60;42.33;;;6.90;99.90;;;;;;5017678;28;20046;-75
2022/11/28 04:52:20;;;;;;;57.28;43.15;;;6.90;99.90;;;;;;4998339;28;20053;-75
2022/11/28 04:55:10;;;;;;;65.40;46.70;;;6.90;99.90;;;;;;5015922;28;20512;-75
2022/11/28 04:57:51;;;;;;;70.75;45.42;;;7.00;99.90;;;;;;5032194;28;20060;-75
2022/11/28 05:00:20;;;;;;;59.95;42.40;;;7.00;99.90;;;;;;5035380;28;20103;-75
2022/11/28 05:02:50;;;;;;;62.72;43.15;;;7.00;99.90;;;;;;5017745;28;20361;-75
2022/11/28 05:05:19;;;;;;;59.38;44.50;;;7.00;99.90;;;;;;5035656;28;20029;-75
2022/11/28 05:07:45;;;;;;;62.55;43.63;;;7.10;99.90;;;;;;5026149;28;20029;-75
2022/11/28 05:10:12;;;;;;;66.07;44.97;;;7.10;99.90;;;;;;4981984;28;20049;-75
2022/11/28 05:12:38;;;;;;;59.50;44.58;;;7.10;99.90;;;;;;5015532;28;20034;-76
2022/11/28 05:15:04;;;;;;;65.57;43.42;;;7.10;99.90;;;;;;4998292;28;20124;-76
2022/11/28 05:17:30;;;;;;;53.70;40.95;;;7.10;99.90;;;;;;5015756;28;20350;-75
2022/11/28 05:19:55;;;;;;;69.63;44.63;;;7.20;99.90;;;;;;5015452;28;20046;-75
2022/11/28 05:22:21;;;;;;;55.83;42.60;;;7.10;99.90;;;;;;5014261;28;20382;-76
2022/11/28 05:24:50;;;;;;;69.07;46.35;;;7.20;99.90;;;;;;5015478;28;20049;-76
2022/11/28 05:27:18;;;;;;;67.45;45.95;;;7.20;99.90;;;;;;5035019;28;20112;-76
2022/11/28 05:29:45;;;;;;;58.00;42.47;;;7.20;99.90;;;;;;5001050;28;20037;-75
2022/11/28 05:32:11;;;;;;;68.40;45.63;;;7.20;99.90;;;;;;5017556;28;20037;-76
2022/11/28 05:34:37;;;;;;;73.97;48.85;;;7.40;99.90;;;;;;5017682;28;20191;-75
2022/11/28 05:37:06;;;;;;;75.10;49.22;;;7.20;99.90;;;;;;5031972;28;20112;-75
2022/11/28 05:39:32;;;;;;;53.70;43.80;;;7.20;99.90;;;;;;5014515;28;20365;-76
2022/11/28 05:41:58;;;;;;;72.07;48.35;;;7.30;99.90;;;;;;5015122;28;20042;-75
2022/11/28 05:44:26;;;;;;;75.47;49.22;;;7.20;99.90;;;;;;5015217;28;20073;-75
2022/11/28 05:46:52;;;;;;;51.78;41.95;;;7.30;99.90;;;;;;5015032;28;20358;-76
2022/11/28 05:49:20;;;;;;;64.32;44.55;;;7.30;99.90;;;;;;5015394;28;20037;-76
2022/11/28 05:51:48;;;;;;;51.88;41.72;;;7.30;99.90;;;;;;4997404;28;20378;-76
2022/11/28 05:54:14;;;;;;;64.57;46.10;;;7.30;99.90;;;;;;5014696;28;20034;-75
2022/11/28 05:56:40;;;;;;;67.40;46.00;;;7.30;99.90;;;;;;5015013;28;20034;-75
2022/11/28 05:59:05;;;;;;;57.20;43.92;;;7.30;99.90;;;;;;5014978;28;20048;-75
2022/11/28 06:01:31;;;;;;;60.30;44.80;;;7.30;99.90;;;;;;4964587;28;20391;-75
2022/11/28 06:03:59;;;;;;;61.22;44.10;;;7.30;99.90;;;;;;4997517;28;20054;-76
2022/11/28 06:06:33;;;;;;;57.00;42.03;;;7.30;99.90;;;;;;5015038;28;20104;-76
2022/11/28 06:08:59;;;;;;;;;;;7.30;99.90;;;;;;5035041;28;20065;-77
2022/11/28 06:11:27;;;;;;;60.22;42.28;;;7.40;99.90;;;;;;5034623;28;19925;-75
2022/11/28 06:13:53;;;;;;;56.42;40.03;;;7.40;99.90;;;;;;5034756;28;20041;-75
2022/11/28 06:16:21;;;;;;;50.22;37.25;;;7.40;99.90;;;;;;5034648;28;20072;-74
2022/11/28 06:18:50;;;;;;;54.65;39.53;;;7.40;99.90;;;;;;5034506;28;20045;-76
2022/11/28 06:21:19;;;;;;;48.70;37.30;;;7.40;99.90;;;;;;5031335;28;20064;-76
2022/11/28 06:23:45;;;;;;;55.13;37.92;;;7.70;99.90;;;;;;5014788;28;20065;-76
2022/11/28 06:26:14;;;;;;;50.60;37.17;;;7.40;99.90;;;;;;5014500;28;20038;-73
2022/11/28 06:28:40;;;;;;;57.30;41.40;;;7.50;99.90;;;;;;5014969;28;20334;-72
2022/11/28 06:31:20;;;;;;;52.30;39.25;;;7.50;99.90;;;;;;5034571;28;20048;-73
2022/11/28 06:33:49;;;;;;;52.90;38.85;;;7.50;99.90;;;;;;5034291;28;20037;-73
2022/11/28 06:36:19;;;;;;;53.97;39.65;;;7.40;99.90;;;;;;5034485;28;20049;-73
2022/11/28 06:38:45;;;;;;;51.95;38.75;;;7.40;99.90;;;;;;5034269;28;20180;-73
2022/11/28 06:41:13;;;;;;;51.58;38.97;;;7.60;99.90;;;;;;5022333;28;20081;-73
2022/11/28 06:43:39;;;;;;;57.45;39.88;;;7.50;99.90;;;;;;5034480;28;20033;-73
2022/11/28 06:46:10;;;;;;;50.15;37.13;;;7.50;99.90;;;;;;5034390;28;20108;-73
2022/11/28 06:48:35;;;;;;;68.65;43.17;;;7.50;99.90;;;;;;5034133;28;20076;-73
2022/11/28 06:51:05;;;;;;;46.17;38.03;;;7.40;99.90;;;;;;5026944;28;20045;-74
2022/11/28 06:53:32;;;;;;;49.40;37.38;;;7.50;99.90;;;;;;5037925;28;20113;-73
2022/11/28 06:56:02;;;;;;;59.33;39.65;;;7.50;99.90;;;;;;5025671;28;20041;-74
2022/11/28 06:58:28;;;;;;;53.63;40.17;;;7.50;99.90;;;;;;5017734;28;20100;-73
2022/11/28 07:00:53;;;;;;;55.63;40.60;;;7.50;99.90;;;;;;5017870;28;20042;-73
2022/11/28 07:03:19;;;;;;;62.92;41.22;;;7.50;99.90;;;;;;5017693;28;20529;-73
2022/11/28 07:05:45;;;;;;;60.50;42.25;;;7.50;99.90;;;;;;5000713;28;20104;-74
2022/11/28 07:08:10;;;;;;;55.17;39.08;;;7.50;99.90;;;;;;5017302;28;20410;-73
2022/11/28 07:10:36;;;;;;;59.30;42.03;;;7.50;99.90;;;;;;5017553;28;20097;-73
2022/11/28 07:13:01;;;;;;;62.90;41.45;;;7.50;99.90;;;;;;5017522;28;20445;-73
2022/11/28 07:15:27;;;;;;;55.90;39.83;;;7.50;99.90;;;;;;5017440;28;20484;-73
2022/11/28 07:17:53;;;;;;;66.60;43.60;;;7.50;99.90;;;;;;5018185;28;20034;-73
2022/11/28 07:20:19;;;;;;;67.68;43.22;;;7.50;99.90;;;;;;5037123;28;20055;-74
2022/11/28 07:22:49;;;;;;;61.10;40.35;;;7.70;99.90;;;;;;5037503;28;20041;-73
2022/11/28 07:25:15;;;;;;;60.35;41.60;;;7.50;99.90;;;;;;5037380;28;20042;-74
2022/11/28 07:27:41;;;;;;;56.33;41.17;;;7.50;99.90;;;;;;5022182;28;20426;-74
2022/11/28 07:30:08;;;;;;;67.68;42.92;;;7.50;99.90;;;;;;5017216;28;20057;-74
2022/11/28 07:32:34;;;;;;;65.00;42.65;;;7.50;99.90;;;;;;5017825;28;20050;-73
2022/11/28 07:34:59;;;;;;;79.45;45.97;;;7.50;99.90;;;;;;5017655;28;20050;-74
2022/11/28 07:37:25;;;;;;;60.63;41.95;;;7.50;99.90;;;;;;5017389;28;20052;-75
2022/11/28 07:39:51;;;;;;;66.18;42.17;;;7.50;99.90;;;;;;5017144;28;20048;-74
2022/11/28 07:42:19;;;;;;;64.90;41.35;;;7.60;99.90;;;;;;5016606;28;20113;-74
2022/11/28 07:44:44;;;;;;;73.32;44.30;;;7.60;99.90;;;;;;5016920;28;20046;-75
2022/11/28 07:47:10;;;;;;;58.35;38.70;;;7.60;99.90;;;;;;5017237;28;20051;-73
2022/11/28 07:49:36;;;;;;;74.25;43.15;;;7.50;99.90;;;;;;5016896;28;20403;-74
2022/11/28 07:52:01;;;;;;;64.35;40.85;;;7.50;99.90;;;;;;4999518;28;20034;-73
2022/11/28 07:54:27;;;;;;;77.55;43.30;;;7.60;99.90;;;;;;4999621;28;20121;-74
2022/11/28 07:56:52;;;;;;;66.75;40.47;;;7.60;99.90;;;;;;5016427;28;20331;-74
2022/11/28 07:59:18;;;;;;;55.50;38.28;;;7.50;99.90;;;;;;4998983;28;20089;-74
2022/11/28 08:01:43;;;;;;;66.10;41.30;;;7.60;99.90;;;;;;5015698;28;20054;-74
2022/11/28 08:04:09;;;;;;;64.90;40.20;;;7.60;99.90;;;;;;5016691;28;20046;-75
2022/11/28 08:06:38;;;;;;;63.70;39.00;;;7.60;99.90;;;;;;5017243;28;20143;-74
2022/11/28 08:09:05;;;;;;;54.03;37.10;;;7.60;99.90;;;;;;5036347;28;20458;-74
2022/11/28 08:11:31;;;;;;;68.18;40.38;;;7.60;99.90;;;;;;5025719;28;20046;-74
2022/11/28 08:13:57;;;;;;;49.83;34.28;;;7.60;99.90;;;;;;5016152;28;20038;-74
2022/11/28 08:16:24;;;;;;;51.13;35.38;;;7.60;99.90;;;;;;4999385;28;20442;-75
2022/11/28 08:18:51;;;;;;;60.33;38.20;;;7.60;99.90;;;;;;5015936;28;20049;-74
2022/11/28 08:21:23;;;;;;;56.72;34.55;;;7.60;99.90;;;;;;5035986;28;20095;-75
2022/11/28 08:23:52;;;;;;;53.47;34.63;;;7.60;99.90;;;;;;5036078;28;20053;-74
2022/11/28 08:26:20;;;;;;;52.70;34.97;;;7.60;99.90;;;;;;5036026;28;20056;-74
2022/11/28 08:28:46;;;;;;;44.17;31.48;;;7.60;99.90;;;;;;5001355;28;20042;-74
2022/11/28 08:31:29;;;;;;;51.47;32.25;;;7.60;99.90;;;;;;5036219;28;20052;-74
2022/11/28 08:33:58;;;;;;;48.80;32.95;;;7.60;99.90;;;;;;5018732;28;20053;-74
2022/11/28 08:36:23;;;;;;;40.13;28.98;;;7.60;99.90;;;;;;5035541;28;20038;-74
2022/11/28 08:38:49;;;;;;;39.53;29.08;;;7.70;99.90;;;;;;5035763;28;20045;-74
2022/11/28 08:41:20;;;;;;;34.20;25.52;;;7.70;99.90;;;;;;5027391;28;20030;-74
2022/11/28 08:43:47;;;;;;;36.50;27.17;;;7.70;99.90;;;;;;5015921;28;20362;-73
2022/11/28 08:46:17;;;;;;;40.50;28.42;;;7.70;99.90;;;;;;5005293;28;20118;-75
2022/11/28 08:48:43;;;;;;;37.42;28.23;;;7.70;99.90;;;;;;5018581;28;20088;-74
2022/11/28 08:51:13;;;;;;;37.28;26.10;;;7.70;99.90;;;;;;5014733;28;20073;-74
2022/11/28 08:53:39;;;;;;;33.10;25.92;;;7.70;99.90;;;;;;5015443;28;20044;-74
2022/11/28 08:56:05;;;;;;;30.67;24.88;;;7.70;99.90;;;;;;5015733;28;20045;-76
2022/11/28 08:58:31;;;;;;;35.15;25.50;;;7.80;99.90;;;;;;5016039;28;20056;-74
2022/11/28 09:00:57;;;;;;;36.80;25.95;;;7.80;99.90;;;;;;5015853;28;20120;-75
2022/11/28 09:03:22;;;;;;;40.13;26.30;;;7.80;99.90;;;;;;4998555;28;20057;-74
2022/11/28 09:05:48;;;;;;;31.92;23.02;;;7.80;99.90;;;;;;5015132;28;20038;-74
2022/11/28 09:08:16;;;;;;;27.58;21.50;;;7.80;99.90;;;;;;5015598;28;20085;-75
2022/11/28 09:10:45;;;;;;;30.02;22.15;;;7.80;99.90;;;;;;5035302;28;20124;-75
2022/11/28 09:13:12;;;;;;;33.75;22.95;;;7.80;99.90;;;;;;5035251;28;20052;-74
2022/11/28 09:15:40;;;;;;;32.97;23.25;;;7.90;99.90;;;;;;5017660;28;20396;-74
2022/11/28 09:18:05;;;;;;;26.75;21.05;;;7.90;99.90;;;;;;5035356;28;20358;-75
2022/11/28 09:20:32;;;;;;;24.55;18.42;;;7.90;99.90;;;;;;5028599;28;20052;-75
2022/11/28 09:22:58;;;;;;;29.67;21.13;;;7.90;99.90;;;;;;5015575;28;20057;-74
2022/11/28 09:25:26;;;;;;;30.30;20.05;;;7.90;99.90;;;;;;5015325;28;20038;-75
2022/11/28 09:27:52;;;;;;;28.65;21.83;;;8.20;99.90;;;;;;5015120;28;20040;-76
2022/11/28 09:30:21;;;;;;;25.27;19.35;;;7.90;99.90;;;;;;5015353;28;20038;-76
2022/11/28 09:32:50;;;;;;;26.08;19.77;;;7.90;99.90;;;;;;5015212;28;20446;-75
2022/11/28 09:35:19;;;;;;;21.80;17.40;;;7.90;99.90;;;;;;5008393;28;20033;-74
2022/11/28 09:37:48;;;;;;;24.88;18.35;;;8.00;99.90;;;;;;5034860;28;20060;-76
2022/11/28 09:40:33;;;;;;;19.58;15.85;;;8.00;99.90;;;;;;5034877;28;20361;-75
2022/11/28 09:43:01;;;;;;;19.25;15.48;;;8.00;99.90;;;;;;5035059;28;20072;-75
2022/11/28 09:45:27;;;;;;;19.33;15.40;;;8.00;99.90;;;;;;5034848;28;20175;-74
2022/11/28 09:47:58;;;;;;;17.90;14.20;;;8.40;99.90;;;;;;5034946;28;20120;-75
2022/11/28 09:50:34;;;;;;;24.13;16.35;;;8.10;99.90;;;;;;5034734;28;20349;-75
2022/11/28 09:53:11;;;;;;;17.98;14.38;;;8.10;99.90;;;;;;5034705;28;20053;-74
2022/11/28 09:55:49;;;;;;;16.73;13.63;;;8.50;99.90;;;;;;5030010;28;20046;-75
2022/11/28 09:58:23;;;;;;;17.52;14.38;;;8.10;99.90;;;;;;5017720;28;20042;-74
2022/11/28 10:01:07;;;;;;;15.80;13.20;;;8.10;99.90;;;;;;5034587;28;20038;-75
2022/11/28 10:04:00;;;;;;;15.30;13.00;;;8.50;99.90;;;;;;5034782;28;20064;-75
2022/11/28 10:06:34;;;;;;;17.58;13.70;;;8.10;99.90;;;;;;5034671;28;20041;-74
2022/11/28 10:09:18;;;;;;;20.38;15.35;;;8.10;99.90;;;;;;5017156;28;20081;-75
2022/11/28 10:11:56;;;;;;;18.48;14.20;;;8.20;99.90;;;;;;5001073;28;20052;-75
2022/11/28 10:14:42;;;;;;;18.25;14.88;;;8.20;99.90;;;;;;4997567;28;20110;-74
2022/11/28 10:17:42;;;;;;;19.23;14.82;;;8.20;99.90;;;;;;5014860;28;20410;-75
2022/11/28 10:20:21;;;;;;;18.13;13.75;;;8.20;99.90;;;;;;5014793;28;20046;-74
2022/11/28 10:23:01;;;;;;;17.92;14.68;;;8.20;99.90;;;;;;4997609;28;20521;-75
2022/11/28 10:25:39;;;;;;;16.80;13.55;;;8.20;99.90;;;;;;4998306;28;20053;-75
2022/11/28 10:28:09;;;;;;;16.48;13.73;;;8.20;99.90;;;;;;5018267;28;20088;-74
2022/11/28 10:30:39;;;;;;;14.77;12.80;;;8.10;99.90;;;;;;5018783;28;20050;-75
2022/11/28 10:33:19;;;;;;;18.83;14.63;;;8.20;99.90;;;;;;5018514;28;20049;-75
2022/11/28 10:35:53;;;;;;;20.42;14.82;;;8.20;99.90;;;;;;5018234;28;20041;-74
2022/11/28 10:38:24;;;;;;;15.85;13.30;;;8.90;99.90;;;;;;5018230;28;20100;-75
2022/11/28 10:40:53;;;;;;;18.35;14.50;;;8.20;99.90;;;;;;4983975;28;20041;-74
2022/11/28 10:43:39;;;;;;;16.70;14.02;;;8.30;99.90;;;;;;5018198;28;20052;-74
2022/11/28 10:46:34;;;;;;;16.38;13.55;;;8.30;99.90;;;;;;5018353;28;20046;-74
2022/11/28 10:49:18;;;;;;;17.55;14.32;;;8.30;99.90;;;;;;5020177;28;20052;-74
2022/11/28 10:51:56;;;;;;;16.42;14.02;;;8.40;99.90;;;;;;5037813;28;20124;-74
2022/11/28 10:54:43;;;;;;;21.55;15.65;;;8.40;99.90;;;;;;5037793;28;20056;-74
2022/11/28 10:57:36;;;;;;;20.10;15.45;;;8.40;99.90;;;;;;5037800;28;20052;-75
2022/11/28 11:00:14;;;;;;;21.75;16.27;;;8.40;99.90;;;;;;5037451;28;20037;-75
2022/11/28 11:02:53;;;;;;;18.70;15.13;;;8.40;99.90;;;;;;5037728;28;20038;-74
2022/11/28 11:05:23;;;;;;;16.05;13.63;;;8.40;99.90;;;;;;5037345;28;20072;-75
2022/11/28 11:07:51;;;;;;;16.40;14.05;;;8.40;99.90;;;;;;5004275;28;20085;-74
2022/11/28 11:10:25;;;;;;;16.25;13.40;;;8.50;99.90;;;;;;5035100;28;20041;-74
2022/11/28 11:12:52;;;;;;;17.80;14.40;;;8.50;99.90;;;;;;5017801;28;20108;-74
2022/11/28 11:15:22;;;;;;;16.65;13.80;;;8.50;99.90;;;;;;5017676;28;20060;-74
2022/11/28 11:17:49;;;;;;;15.93;13.80;;;8.50;99.90;;;;;;5017417;28;20355;-74
2022/11/28 11:20:39;;;;;;;16.52;14.38;;;8.50;99.90;;;;;;5017311;28;20414;-74
2022/11/28 11:23:14;;;;;;;17.13;14.48;;;8.50;99.90;;;;;;5005006;28;20058;-74
2022/11/28 11:25:53;;;;;;;17.75;13.80;;;8.50;99.90;;;;;;5017240;28;20060;-74
2022/11/28 11:28:35;;;;;;;19.60;15.88;;;8.50;99.90;;;;;;5017107;28;20046;-74
2022/11/28 11:31:05;;;;;;;18.80;15.25;;;8.50;99.90;;;;;;5011751;28;20075;-74
2022/11/28 11:33:36;;;;;;;21.45;15.95;;;8.60;99.90;;;;;;4987387;28;20087;-74
2022/11/28 11:36:05;;;;;;;15.27;13.50;;;8.60;99.90;;;;;;5037061;28;20076;-74
2022/11/28 11:38:34;;;;;;;18.52;14.55;;;8.60;99.90;;;;;;5036752;28;20061;-74
2022/11/28 11:41:38;;;;;;;19.63;15.52;;;8.60;99.90;;;;;;5037355;28;20174;-74
2022/11/28 11:44:13;;;;;;;21.42;15.43;;;8.70;99.90;;;;;;5036503;28;20049;-75
2022/11/28 11:46:55;;;;;;;17.40;14.70;;;8.70;99.90;;;;;;5031580;28;20038;-73
2022/11/28 11:49:41;;;;;;;17.75;14.48;;;8.70;99.90;;;;;;5036838;28;20080;-74
2022/11/28 11:52:42;;;;;;;18.92;15.05;;;8.70;99.90;;;;;;5036897;28;20080;-74
2022/11/28 11:55:14;;;;;;;17.92;15.63;;;8.70;99.90;;;;;;4937515;29;20500;-74
2022/11/28 11:57:52;;;;;;;16.83;14.60;;;8.70;99.90;;;;;;5020027;28;20053;-75
2022/11/28 12:00:20;;;;;;;19.25;15.10;;;8.80;99.90;;;;;;5019194;28;20057;-75
2022/11/28 12:02:59;;;;;;;18.65;16.02;;;8.80;99.90;;;;;;5035995;28;20038;-75
2022/11/28 12:05:33;;;;;;;23.50;17.40;;;8.80;99.90;;;;;;5036496;28;20496;-74
2022/11/28 12:08:09;;;;;;;17.90;15.98;;;8.80;99.90;;;;;;5036347;28;20049;-74
2022/11/28 12:10:47;;;;;;;19.55;15.05;;;8.80;99.90;;;;;;5036409;28;20052;-77
2022/11/28 12:13:21;;;;;;;20.00;15.80;;;8.80;99.90;;;;;;5018873;28;20048;-74
2022/11/28 12:16:09;;;;;;;16.80;15.00;;;8.80;99.90;;;;;;5035920;28;20049;-74
2022/11/28 12:19:19;;;;;;;19.75;15.98;;;8.80;99.90;;;;;;5004250;28;20128;-74
2022/11/28 12:22:12;;;;;;;20.70;15.88;;;8.80;99.90;;;;;;4981356;28;20045;-74
2022/11/28 12:25:18;;;;;;;27.10;18.90;;;8.80;99.90;;;;;;5036500;28;20490;-75
2022/11/28 12:28:11;;;;;;;17.80;14.63;;;8.80;99.90;;;;;;5036056;28;20442;-74
2022/11/28 12:31:38;;;;;;;23.35;17.25;;;8.80;99.90;;;;;;5032749;28;20109;-75
2022/11/28 12:34:27;;;;;;;17.77;15.80;;;8.80;99.90;;;;;;4931309;29;20086;-74
2022/11/28 12:37:34;;;;;;;20.50;15.98;;;8.80;99.90;;;;;;5011589;28;20470;-74
2022/11/28 12:40:18;;;;;;;26.17;19.92;;;8.90;99.90;;;;;;5002876;28;20455;-74
2022/11/28 12:42:50;;;;;;;20.88;16.67;;;8.90;99.90;;;;;;5016290;28;20057;-74
2022/11/28 12:45:36;;;;;;;19.58;16.23;;;8.90;99.90;;;;;;5016108;28;20120;-74
2022/11/28 12:48:36;;;;;;;18.10;15.70;;;8.90;99.90;;;;;;5015776;28;20037;-74
2022/11/28 12:51:19;;;;;;;21.00;17.65;;;8.90;99.90;;;;;;5015873;28;20038;-74
2022/11/28 12:53:48;;;;;;;19.58;15.88;;;9.00;99.90;;;;;;4998320;28;20470;-74
2022/11/28 12:56:44;;;;;;;17.20;15.00;;;9.00;99.90;;;;;;5015688;28;20515;-74
2022/11/28 12:59:34;;;;;;;17.88;15.00;;;8.90;99.90;;;;;;4998353;28;20042;-73
2022/11/28 13:02:28;;;;;;;18.25;14.93;;;8.90;99.90;;;;;;5015159;28;20348;-74
2022/11/28 13:05:33;;;;;;;17.75;15.27;;;8.90;99.90;;;;;;5017517;28;20045;-74
2022/11/28 13:08:04;;;;;;;18.80;14.55;;;8.90;99.90;;;;;;5035669;28;20049;-75
2022/11/28 13:10:56;;;;;;;16.52;14.60;;;8.90;99.90;;;;;;5035054;28;20053;-74